Felix-Klein-Gymnasium, Gttingen, 150m NN
Donnes mto: Actuelle Dienstag, 23.05.2017 06:30
Date Horaire Temp. E. Hum. E. P.atmo. Pluie Vent Direction Direction Ensoleilleme P. de rose Temp au vent Rafales
23.05.2017 06:30 10,8 C 87 % 1014,4 hPa 0,0 mm 0,0 km/h (0 Bft) SE 137 0 min 8,7 C 10,8 C 1,6 km/h (1 Bft)
23.05.2017 06:15 10,6 C 88 % 1014,4 hPa 0,0 mm 0,0 km/h (0 Bft) SE 136 0 min 8,7 C 10,6 C 1,6 km/h (1 Bft)
23.05.2017 06:00 10,3 C 88 % 1014,3 hPa 0,0 mm 0,0 km/h (0 Bft) SE 137 0 min 8,4 C 10,3 C 0,0 km/h (0 Bft)
23.05.2017 05:45 10,3 C 87 % 1014,2 hPa 0,0 mm 0,8 km/h (0 Bft) SE 137 15 min 8,2 C 10,3 C 3,2 km/h (1 Bft)
23.05.2017 05:30 10,3 C 88 % 1014,2 hPa 0,0 mm 0,2 km/h (0 Bft) S-SE 152 0 min 8,4 C 10,3 C 3,2 km/h (1 Bft)
23.05.2017 05:15 10,3 C 88 % 1014,3 hPa 0,0 mm 0,2 km/h (0 Bft) S-SE 152 0 min 8,4 C 10,3 C 4,8 km/h (1 Bft)
23.05.2017 05:00 10,3 C 88 % 1014,3 hPa 0,0 mm 0,2 km/h (0 Bft) S-SE 153 0 min 8,4 C 10,3 C 4,8 km/h (1 Bft)
23.05.2017 04:45 10,3 C 88 % 1014,4 hPa 0,0 mm 0,0 km/h (0 Bft) S-SE 153 0 min 8,4 C 10,3 C 1,6 km/h (1 Bft)
23.05.2017 04:30 10,3 C 88 % 1014,3 hPa 0,0 mm 0,0 km/h (0 Bft) S-SE 153 0 min 8,4 C 10,3 C 1,6 km/h (1 Bft)
23.05.2017 04:15 10,3 C 87 % 1014,3 hPa 0,0 mm 0,0 km/h (0 Bft) S-SE 153 0 min 8,2 C 10,3 C 0,0 km/h (0 Bft)
23.05.2017 04:00 10,4 C 87 % 1014,3 hPa 0,0 mm 0,0 km/h (0 Bft) S-SE 153 0 min 8,3 C 10,4 C 1,6 km/h (1 Bft)
23.05.2017 03:45 10,5 C 86 % 1014,3 hPa 0,0 mm 0,1 km/h (0 Bft) S-SE 153 0 min 8,3 C 10,5 C 1,6 km/h (1 Bft)
23.05.2017 03:30 10,7 C 86 % 1014,3 hPa 0,0 mm 0,5 km/h (0 Bft) S-SE 153 0 min 8,5 C 10,7 C 3,2 km/h (1 Bft)
23.05.2017 03:15 10,8 C 86 % 1014,4 hPa 0,0 mm 0,3 km/h (0 Bft) S-SE 158 0 min 8,6 C 10,8 C 1,6 km/h (1 Bft)
23.05.2017 03:00 11,0 C 85 % 1014,5 hPa 0,0 mm 0,1 km/h (0 Bft) S-SE 159 0 min 8,6 C 11,0 C 1,6 km/h (1 Bft)
23.05.2017 02:45 11,2 C 85 % 1014,5 hPa 0,0 mm 0,0 km/h (0 Bft) S-SE 160 0 min 8,8 C 11,2 C 1,6 km/h (1 Bft)
23.05.2017 02:30 11,3 C 85 % 1014,7 hPa 0,0 mm 0,0 km/h (0 Bft) S-SE 160 0 min 8,9 C 11,3 C 1,6 km/h (1 Bft)
23.05.2017 02:15 11,4 C 84 % 1014,7 hPa 0,0 mm 0,0 km/h (0 Bft) S-SE 160 0 min 8,8 C 11,4 C 1,6 km/h (1 Bft)
23.05.2017 02:00 11,6 C 84 % 1014,8 hPa 0,0 mm 0,1 km/h (0 Bft) S-SE 160 0 min 9,0 C 11,6 C 1,6 km/h (1 Bft)
23.05.2017 01:45 11,8 C 83 % 1014,8 hPa 0,0 mm 0,0 km/h (0 Bft) S-SE 160 0 min 9,0 C 11,8 C 1,6 km/h (1 Bft)
23.05.2017 01:30 12,1 C 83 % 1015,0 hPa 0,0 mm 0,0 km/h (0 Bft) S-SE 160 0 min 9,3 C 12,1 C 0,0 km/h (0 Bft)
23.05.2017 01:15 12,3 C 81 % 1015,1 hPa 0,0 mm 0,2 km/h (0 Bft) S-SE 160 0 min 9,1 C 12,3 C 3,2 km/h (1 Bft)
23.05.2017 01:00 12,7 C 80 % 1015,2 hPa 0,0 mm 0,4 km/h (0 Bft) S-SE 160 0 min 9,3 C 12,7 C 4,8 km/h (1 Bft)
23.05.2017 00:45 13,0 C 79 % 1015,1 hPa 0,0 mm 0,4 km/h (0 Bft) S-SE 161 0 min 9,4 C 13,0 C 3,2 km/h (1 Bft)
23.05.2017 00:30 13,3 C 78 % 1015,2 hPa 0,0 mm 0,1 km/h (0 Bft) S-SE 162 0 min 9,5 C 13,3 C 3,2 km/h (1 Bft)
23.05.2017 00:15 13,7 C 76 % 1015,3 hPa 0,0 mm 0,1 km/h (0 Bft) S-SE 162 0 min 9,5 C 13,7 C 1,6 km/h (1 Bft)
23.05.2017 00:00 13,9 C 75 % 1015,2 hPa 0,0 mm 0,0 km/h (0 Bft) S-SE 162 0 min 9,5 C 13,9 C 0,0 km/h (0 Bft)
22.05.2017 22:45 15,6 C 68 % 1015,3 hPa 0,0 mm 2,1 km/h (1 Bft) S-SE 162 0 min 9,7 C 15,6 C 6,4 km/h (2 Bft)
22.05.2017 22:30 15,9 C 67 % 1015,2 hPa 0,0 mm 2,3 km/h (1 Bft) S-SE 162 0 min 9,8 C 15,9 C 6,4 km/h (2 Bft)
22.05.2017 22:15 16,4 C 66 % 1015,1 hPa 0,0 mm 2,4 km/h (1 Bft) S-SE 155 0 min 10,0 C 16,4 C 6,4 km/h (2 Bft)
22.05.2017 22:00 17,3 C 62 % 1015,1 hPa 0,0 mm 3,0 km/h (1 Bft) SE 144 0 min 9,9 C 17,3 C 8,0 km/h (2 Bft)
22.05.2017 21:45 17,9 C 58 % 1015,0 hPa 0,0 mm 3,7 km/h (1 Bft) E-NE 77 0 min 9,5 C 17,9 C 8,0 km/h (2 Bft)
22.05.2017 21:30 18,3 C 57 % 1015,0 hPa 0,0 mm 3,2 km/h (1 Bft) E 95 0 min 9,6 C 18,3 C 8,0 km/h (2 Bft)
22.05.2017 21:15 18,6 C 56 % 1015,0 hPa 0,0 mm 3,6 km/h (1 Bft) E-SE 103 0 min 9,6 C 18,6 C 9,7 km/h (2 Bft)
22.05.2017 21:00 19,0 C 54 % 1014,9 hPa 0,0 mm 4,0 km/h (1 Bft) E 82 0 min 9,5 C 19,0 C 11,3 km/h (2 Bft)
22.05.2017 20:45 19,4 C 53 % 1014,9 hPa 0,0 mm 4,0 km/h (1 Bft) E-NE 64 0 min 9,6 C 19,4 C 12,9 km/h (3 Bft)
22.05.2017 20:30 19,7 C 52 % 1014,9 hPa 0,0 mm 5,1 km/h (1 Bft) E-SE 122 0 min 9,6 C 19,7 C 11,3 km/h (2 Bft)
22.05.2017 20:15 19,9 C 50 % 1014,9 hPa 0,0 mm 6,5 km/h (2 Bft) NE 51 0 min 9,2 C 19,9 C 14,5 km/h (3 Bft)
22.05.2017 20:00 20,1 C 49 % 1014,9 hPa 0,0 mm 7,6 km/h (2 Bft) E 87 0 min 9,0 C 20,1 C 16,1 km/h (3 Bft)
22.05.2017 19:45 20,3 C 50 % 1015,1 hPa 0,0 mm 8,6 km/h (2 Bft) E 90 15 min 9,5 C 20,3 C 17,7 km/h (3 Bft)
22.05.2017 19:30 20,4 C 49 % 1015,1 hPa 0,0 mm 8,0 km/h (2 Bft) E 79 15 min 9,3 C 20,4 C 16,1 km/h (3 Bft)
22.05.2017 19:15 20,5 C 49 % 1015,2 hPa 0,0 mm 10,8 km/h (2 Bft) E 88 15 min 9,4 C 20,5 C 22,5 km/h (4 Bft)
22.05.2017 19:00 20,9 C 47 % 1015,2 hPa 0,0 mm 7,8 km/h (2 Bft) E 94 15 min 9,2 C 20,9 C 22,5 km/h (4 Bft)
22.05.2017 18:45 21,7 C 44 % 1015,3 hPa 0,0 mm 5,8 km/h (2 Bft) E-NE 70 15 min 8,9 C 21,7 C 16,1 km/h (3 Bft)
22.05.2017 18:30 22,1 C 44 % 1015,5 hPa 0,0 mm 3,9 km/h (1 Bft) SE 142 15 min 9,3 C 22,1 C 14,5 km/h (3 Bft)
22.05.2017 18:15 21,6 C 45 % 1015,6 hPa 0,0 mm 6,3 km/h (2 Bft) SE 129 15 min 9,2 C 21,6 C 17,7 km/h (3 Bft)
22.05.2017 18:00 22,2 C 44 % 1015,7 hPa 0,0 mm 5,2 km/h (1 Bft) E 96 15 min 9,4 C 22,2 C 19,3 km/h (3 Bft)
22.05.2017 17:45 22,5 C 43 % 1015,7 hPa 0,0 mm 5,3 km/h (1 Bft) E-SE 109 15 min 9,3 C 22,5 C 16,1 km/h (3 Bft)
22.05.2017 17:30 22,6 C 43 % 1015,8 hPa 0,0 mm 4,2 km/h (1 Bft) E-SE 106 15 min 9,4 C 22,6 C 12,9 km/h (3 Bft)
22.05.2017 17:15 21,9 C 43 % 1015,8 hPa 0,0 mm 5,8 km/h (2 Bft) E-NE 77 15 min 8,7 C 21,9 C 14,5 km/h (3 Bft)
22.05.2017 17:00 21,4 C 45 % 1016,1 hPa 0,0 mm 8,8 km/h (2 Bft) E-SE 120 15 min 9,0 C 21,4 C 20,9 km/h (4 Bft)
22.05.2017 16:45 21,4 C 44 % 1016,2 hPa 0,0 mm 6,7 km/h (2 Bft) E-NE 59 15 min 8,6 C 21,4 C 16,1 km/h (3 Bft)
22.05.2017 16:30 21,9 C 44 % 1016,3 hPa 0,0 mm 5,6 km/h (1 Bft) E-NE 63 15 min 9,1 C 21,9 C 17,7 km/h (3 Bft)
22.05.2017 16:15 21,7 C 43 % 1016,6 hPa 0,0 mm 8,8 km/h (2 Bft) E 99 15 min 8,6 C 21,7 C 22,5 km/h (4 Bft)
22.05.2017 16:00 21,5 C 43 % 1016,6 hPa 0,0 mm 8,4 km/h (2 Bft) E 80 15 min 8,4 C 21,5 C 20,9 km/h (4 Bft)
22.05.2017 15:45 21,2 C 44 % 1016,7 hPa 0,0 mm 9,6 km/h (2 Bft) E-NE 74 0 min 8,5 C 21,2 C 20,9 km/h (4 Bft)
22.05.2017 15:30 21,3 C 42 % 1016,8 hPa 0,0 mm 6,5 km/h (2 Bft) N-NO 348 15 min 7,9 C 21,3 C 22,5 km/h (4 Bft)
22.05.2017 15:15 21,4 C 42 % 1017,0 hPa 0,0 mm 9,6 km/h (2 Bft) E-NE 74 15 min 8,0 C 21,4 C 22,5 km/h (4 Bft)
22.05.2017 15:00 20,7 C 44 % 1017,0 hPa 0,0 mm 12,0 km/h (2 Bft) E-NE 65 15 min 8,0 C 20,7 C 22,5 km/h (4 Bft)
22.05.2017 14:45 20,8 C 45 % 1017,2 hPa 0,0 mm 11,1 km/h (2 Bft) E 90 0 min 8,4 C 20,8 C 22,5 km/h (4 Bft)
22.05.2017 14:30 21,3 C 44 % 1017,3 hPa 0,0 mm 7,8 km/h (2 Bft) NE 41 15 min 8,5 C 21,3 C 20,9 km/h (4 Bft)
22.05.2017 14:15 20,7 C 45 % 1017,4 hPa 0,0 mm 10,5 km/h (2 Bft) E 81 0 min 8,3 C 20,7 C 27,4 km/h (4 Bft)
22.05.2017 14:00 20,9 C 46 % 1017,6 hPa 0,0 mm 10,7 km/h (2 Bft) E-NE 72 0 min 8,8 C 20,9 C 22,5 km/h (4 Bft)
22.05.2017 13:45 20,6 C 45 % 1017,7 hPa 0,0 mm 13,5 km/h (3 Bft) SE 124 15 min 8,2 C 20,6 C 25,7 km/h (4 Bft)
22.05.2017 13:30 20,9 C 45 % 1017,9 hPa 0,0 mm 12,3 km/h (3 Bft) SE 138 15 min 8,5 C 20,9 C 25,7 km/h (4 Bft)
22.05.2017 13:15 21,2 C 46 % 1017,9 hPa 0,0 mm 10,7 km/h (2 Bft) E 93 15 min 9,1 C 21,2 C 25,7 km/h (4 Bft)
22.05.2017 13:00 20,3 C 43 % 1018,1 hPa 0,0 mm 12,2 km/h (2 Bft) E 94 0 min 7,3 C 20,3 C 24,1 km/h (4 Bft)
22.05.2017 12:45 20,2 C 47 % 1018,2 hPa 0,0 mm 12,8 km/h (3 Bft) NE 47 0 min 8,5 C 20,2 C 25,7 km/h (4 Bft)
22.05.2017 12:30 20,2 C 47 % 1018,3 hPa 0,0 mm 13,8 km/h (3 Bft) N-NE 28 15 min 8,5 C 20,2 C 32,2 km/h (5 Bft)
22.05.2017 12:15 19,8 C 48 % 1018,3 hPa 0,0 mm 13,9 km/h (3 Bft) E 84 15 min 8,5 C 19,8 C 27,4 km/h (4 Bft)
22.05.2017 12:00 20,1 C 48 % 1018,5 hPa 0,0 mm 12,6 km/h (3 Bft) E 101 15 min 8,7 C 20,1 C 32,2 km/h (5 Bft)
22.05.2017 11:45 19,9 C 50 % 1018,6 hPa 0,0 mm 10,9 km/h (2 Bft) E-NE 61 0 min 9,2 C 19,9 C 24,1 km/h (4 Bft)
22.05.2017 11:30 19,5 C 52 % 1018,7 hPa 0,0 mm 11,9 km/h (2 Bft) NE 46 15 min 9,4 C 19,5 C 22,5 km/h (4 Bft)
22.05.2017 11:15 19,5 C 50 % 1019,0 hPa 0,0 mm 12,4 km/h (3 Bft) E-NE 69 15 min 8,8 C 19,5 C 27,4 km/h (4 Bft)
22.05.2017 11:00 19,1 C 52 % 1019,0 hPa 0,0 mm 12,3 km/h (3 Bft) E-NE 65 15 min 9,0 C 19,1 C 27,4 km/h (4 Bft)
22.05.2017 10:45 18,9 C 55 % 1019,1 hPa 0,0 mm 10,4 km/h (2 Bft) E-NE 72 15 min 9,7 C 18,9 C 27,4 km/h (4 Bft)
22.05.2017 10:30 18,7 C 56 % 1019,2 hPa 0,0 mm 8,5 km/h (2 Bft) E-NE 75 16 min 9,7 C 18,7 C 19,3 km/h (3 Bft)
22.05.2017 10:14 19,0 C 55 % 1019,4 hPa 0,0 mm 6,4 km/h (2 Bft) E-NE 70 14 min 9,8 C 19,0 C 20,9 km/h (4 Bft)
22.05.2017 10:00 19,4 C 53 % 1019,5 hPa 0,0 mm 1,2 km/h (1 Bft) E-SE 118 15 min 9,6 C 19,4 C 11,3 km/h (2 Bft)
22.05.2017 09:45 18,2 C 58 % 1019,6 hPa 0,0 mm 0,9 km/h (0 Bft) O 266 15 min 9,8 C 18,2 C 6,4 km/h (2 Bft)
22.05.2017 09:30 17,5 C 62 % 1019,7 hPa 0,0 mm 0,1 km/h (0 Bft) S-SE 157 15 min 10,1 C 17,5 C 1,6 km/h (1 Bft)
22.05.2017 09:15 16,7 C 65 % 1019,8 hPa 0,0 mm 0,3 km/h (0 Bft) S-SE 150 15 min 10,1 C 16,7 C 4,8 km/h (1 Bft)
22.05.2017 09:00 15,9 C 68 % 1019,9 hPa 0,0 mm 0,1 km/h (0 Bft) O-SO 238 15 min 10,0 C 15,9 C 1,6 km/h (1 Bft)
22.05.2017 08:45 15,0 C 71 % 1020,0 hPa 0,0 mm 0,1 km/h (0 Bft) S 180 15 min 9,8 C 15,0 C 3,2 km/h (1 Bft)
22.05.2017 08:30 14,2 C 73 % 1020,1 hPa 0,0 mm 0,2 km/h (0 Bft) SE 130 15 min 9,4 C 14,2 C 3,2 km/h (1 Bft)
22.05.2017 08:15 13,2 C 77 % 1020,2 hPa 0,0 mm 0,1 km/h (0 Bft) S 169 15 min 9,3 C 13,2 C 1,6 km/h (1 Bft)
22.05.2017 08:00 12,1 C 81 % 1020,3 hPa 0,0 mm 0,1 km/h (0 Bft) SE 134 15 min 8,9 C 12,1 C 1,6 km/h (1 Bft)
22.05.2017 07:45 11,4 C 82 % 1020,3 hPa 0,0 mm 0,0 km/h (0 Bft) SE 128 15 min 8,4 C 11,4 C 1,6 km/h (1 Bft)
22.05.2017 07:30 10,6 C 86 % 1020,4 hPa 0,0 mm 0,1 km/h (0 Bft) SE 127 15 min 8,4 C 10,6 C 3,2 km/h (1 Bft)
22.05.2017 07:15 9,8 C 88 % 1020,4 hPa 0,0 mm 0,0 km/h (0 Bft) SE 126 0 min 7,9 C 9,8 C 1,6 km/h (1 Bft)
22.05.2017 07:00 9,2 C 90 % 1020,5 hPa 0,0 mm 0,0 km/h (0 Bft) SE 125 0 min 7,6 C 9,2 C 0,0 km/h (0 Bft)
_ Min-Heure 07:00 15:15 05:30 - 07:00 - - - 13:00 07:00 07:00
Minimum _ 9,2 C 42 % 1014,2 hPa - 0,0 km/h (0 Bft) - - - 7,3 C 9,2 C 0,0 km/h (0 Bft)
_ Max-Heure 17:30 07:00 07:00 07:00 12:15 - - 10:30 09:30 17:30 12:00
Maximum _ 22,6 C 90 % 1020,5 hPa 0,0 mm 13,9 km/h
E (3 Bft)
- - 16 min 10,1 C 22,6 C 32,2 km/h
E (5 Bft)
Moyenne _ 16,1 C 65 % 1016,7 hPa #0,0 mm 4,1 km/h (1 Bft) E-NE - #15 min. 8,9 C 16,1 C 10,5 km/h (2 Bft)